map of TRD home
TRD - Airport
Location
City:  Trondheim, Norway
Near (Alt.):Stjørdal
Name:Vaernes
ICAO:ENVA
IATA:TRD

Details
Type:Airport (Aerodrome, Airfield)
Use:Public/Civil, Military, International (customs port of entry)
Latitude:63°27'27"N (63.457556)
Longitude:10°55'27"E (10.924250)
Datum:WGS 1984
Elevation:56 ft (17 m)
Variation:3.58°E (WMM2015 magnetic declination)
0.19° annual change
Runways:2
Longest:9347 × 148 ft (2849 × 45 m), paved

Time
Time Zone:UTC+1 (DST+2)
Local Time:

Weather
METAR:ENVA 211450Z 24015KT CAVOK 18/11 Q1021 NOSIG RMK WIND 670FT 28015KT
TAF:ENVA 211100Z 2112/2212 27012KT CAVOK
BECMG 2118/2120 VRB03KT
BECMG 2208/2210 27012KT

Related Locations
Nearby:
Farthest:NZTB: 11426 mi / 18388 km
Terra Nova Bay [Mario Zucchelli Station], AQ

Find:

   beyond  
but within

Other Information
Maps:
NOTAMs:
Links:
Sources:

  
flag of Norway
flag of Trondheim
  

Airport Diagram

Airport diagram for TRD

Larger airport diagram (OBSOLETE) from NGA

Sectional Chart

Flight Planning
at skyvector.com

Satellite Image

Google Maps Satellite view

 

Copyright © 2004-2018 Karl L. Swartz. All rights reserved.
The Great Circle Mapper name and logo are trademarks of the Great Circle Mapper.
All other trademarks mentioned herein belong to their respective owners.
Please see credits for attibutions and further copyright information.

  Follow gcmap on Facebook Follow gcmap on Twitter Follow gcmap on Google+ GCmap on LinkedIn

hCard Microformat

Geo Microformat